Aeroporto :
LOGIN :

Iscrizione | Disclaimer

   EN    FR    IT 

 










Sommario :    VFR   VFR Marginale   IFR   IFR Intensivo   IFR Molto Intensivo
Visibilità : 
Base nubi : 
>= 8 km
>= 3000ft
5 / 8 km
1000 / 3000 ft
1500m / 5 km
500 / 1000 ft
800 / 1500m
200 / 500 ft
< 800m
< 200 ft
Simboli :   Temporali  Nebbia  Neve Forte  Precipitazioni Forti  Vento > 20 kt
SIGMETs :   Varie  Temporali  Ghiacco  Turbolenza  Onda orograficha  Ceneri Vulcaniche






- Altitudine del aeroporto : 388 ft
- Codice IATA : QYR


LFQB - Troyes Barberey

ULTIMO METAR :
  • 070930Z AUTO VRB03KT CAVOK 12/08 Q1025

METARs OBSOLETI :
  • 070900Z AUTO 11003KT 070V150 CAVOK 11/08 Q1025
  • 070830Z AUTO VRB02KT CAVOK 08/07 Q1026
  • 070800Z AUTO VRB01KT CAVOK 07/07 Q1026
  • 070730Z AUTO VRB01KT CAVOK 06/06 Q1026
  • 070700Z AUTO 18002KT CAVOK 03/03 Q1026

TAF N/A



MetMap, La meteo Aeronautica in un colpo d'occhio ! - Copyright ORBIFLY Dicembre 2007 - Disclaimer

ORBIFLY MET'MAP TEAM :

Programmazione e sviluppo : Alexandra Zaïnal
Concezione : Baudouin d'Aumeries
Supporto tecnico e logistico : Manuel Goepfert
Aiuto : Marc-Olivier Méhu
Aiuto per la traduzione : Arnaldo La Scala




FONTI E CREDITI :

   NOAA